WeatherOLA & Area Weather Station Summaries and History

Weather history for Indianola, Kingston, Poulsbo, Bainbridge Island, Silverdale other area weather stations. Select a station for detailed historical weather information of any date and time in five minute intervals. Great for looking up the timing of interesting weather events that are closest to you.

Station Historical Data
Daily Summary for September 14, 2017 Units:  Both    English   Metric
« Previous Day
Next Day »
Daily Weekly Monthly Yearly Custom
  High: Low: Average:
Temperature: 73.6 °F /  23.1 °C 52.2 °F /  11.2 °C 61.5 °F /  16.4 °C
Dew Point: 51.4 °F /  10.8 °C 38.7 °F /  3.7 °C 46 °F /  7.8 °C
Humidity: 90% 34% 61%
Wind Speed: 12mph /  19.3km/h - 1.6mph /  2.5km/h
Wind Gust: 12mph /  19.3km/h - -
Wind- - SW
Pressure: 30 in /  1015.1 hPa 29.9 in /  1011.4 hPa -
Precipitation: 0 in /  0.0 mm    
Historical Graphs
 
 
Tabular Data for September 14, 2017
Time Temperature Dew Point Pressure Wind Wind Speed Wind Gust Humidity Rainfall Rate (Hourly) solar Conditions
00:01 57.6 °F /  14.2 °C 51.4 °F /  10.8 °C 29.9in /  1011.4hPa Calm     80% 0in /  0.0mm WeatherDisplay:10.37 W/m2 CLR
00:06 57.4 °F /  14.1 °C 51.3 °F /  10.7 °C 29.9in /  1011.4hPa NNE 1.2mph /  1.9km/h   80% 0in /  0.0mm WeatherDisplay:10.37 W/m2 CLR
00:11 56.8 °F /  13.8 °C 51.1 °F /  10.6 °C 29.9in /  1011.4hPa Calm     81% 0in /  0.0mm WeatherDisplay:10.37 W/m2 CLR
00:16 56.7 °F /  13.7 °C 51.3 °F /  10.7 °C 29.9in /  1011.7hPa Calm     82% 0in /  0.0mm WeatherDisplay:10.37 W/m2 CLR
00:21 56.5 °F /  13.6 °C 51.3 °F /  10.7 °C 29.9in /  1011.7hPa Calm     83% 0in /  0.0mm WeatherDisplay:10.37 W/m2 CLR
00:26 56.1 °F /  13.4 °C 51.1 °F /  10.6 °C 29.9in /  1011.7hPa Calm     83% 0in /  0.0mm WeatherDisplay:10.37 W/m2 CLR
00:31 55.9 °F /  13.3 °C 50.7 °F /  10.4 °C 29.9in /  1011.7hPa Calm     83% 0in /  0.0mm WeatherDisplay:10.37 W/m2 CLR
00:36 55.8 °F /  13.2 °C 50.5 °F /  10.3 °C 29.9in /  1011.7hPa Calm     83% 0in /  0.0mm WeatherDisplay:10.37 W/m2 CLR
00:41 55.6 °F /  13.1 °C 50.5 °F /  10.3 °C 29.9in /  1011.7hPa Calm     83% 0in /  0.0mm WeatherDisplay:10.37 W/m2 CLR
00:46 55.4 °F /  13.0 °C 50.5 °F /  10.3 °C 29.9in /  1011.7hPa Calm     84% 0in /  0.0mm WeatherDisplay:10.37 W/m2 CLR
00:52 55.2 °F /  12.9 °C 50.4 °F /  10.2 °C 29.9in /  1011.7hPa Calm     84% 0in /  0.0mm WeatherDisplay:10.37 W/m2 CLR
00:57 55 °F /  12.8 °C 50.7 °F /  10.4 °C 29.9in /  1011.7hPa North 1mph /  1.6km/h 1mph /  1.6km/h 85% 0in /  0.0mm WeatherDisplay:10.37 W/m2 CLR
01:02 55 °F /  12.8 °C 50.5 °F /  10.3 °C 29.9in /  1011.7hPa North 1.2mph /  1.9km/h   85% 0in /  0.0mm WeatherDisplay:10.37 W/m2 CLR
01:07 54.9 °F /  12.7 °C 50.5 °F /  10.3 °C 29.9in /  1011.7hPa Calm     85% 0in /  0.0mm WeatherDisplay:10.37 W/m2 CLR
01:12 54.7 °F /  12.6 °C 50.4 °F /  10.2 °C 29.9in /  1011.7hPa Calm     85% 0in /  0.0mm WeatherDisplay:10.37 W/m2 CLR
01:17 54.7 °F /  12.6 °C 50.2 °F /  10.1 °C 29.9in /  1011.7hPa Calm     85% 0in /  0.0mm WeatherDisplay:10.37 W/m2 CLR
01:22 54.3 °F /  12.4 °C 50 °F /  10.0 °C 29.9in /  1011.7hPa Calm     85% 0in /  0.0mm WeatherDisplay:10.37 W/m2 CLR
01:27 54.1 °F /  12.3 °C 50.2 °F /  10.1 °C 29.9in /  1011.7hPa Calm     86% 0in /  0.0mm WeatherDisplay:10.37 W/m2 CLR
01:32 54 °F /  12.2 °C 49.8 °F /  9.9 °C 29.9in /  1011.7hPa Calm     86% 0in /  0.0mm WeatherDisplay:10.37 W/m2 CLR
01:37 54 °F /  12.2 °C 49.8 °F /  9.9 °C 29.9in /  1011.7hPa Calm     86% 0in /  0.0mm WeatherDisplay:10.37 W/m2 CLR
01:42 53.8 °F /  12.1 °C 49.6 °F /  9.8 °C 29.9in /  1011.7hPa Calm     86% 0in /  0.0mm WeatherDisplay:10.37 W/m2 CLR
01:47 53.8 °F /  12.1 °C 49.6 °F /  9.8 °C 29.9in /  1011.7hPa Calm     86% 0in /  0.0mm WeatherDisplay:10.37 W/m2 CLR
01:52 53.6 °F /  12.0 °C 49.5 °F /  9.7 °C 29.9in /  1011.7hPa Calm     86% 0in /  0.0mm WeatherDisplay:10.37 W/m2 CLR
01:57 53.4 °F /  11.9 °C 49.6 °F /  9.8 °C 29.9in /  1011.7hPa Calm     87% 0in /  0.0mm WeatherDisplay:10.37 W/m2 CLR
02:02 53.2 °F /  11.8 °C 49.5 °F /  9.7 °C 29.9in /  1011.7hPa Calm     87% 0in /  0.0mm WeatherDisplay:10.37 W/m2 CLR
02:07 53.2 °F /  11.8 °C 49.5 °F /  9.7 °C 29.9in /  1011.7hPa Calm     87% 0in /  0.0mm WeatherDisplay:10.37 W/m2 CLR
02:12 53.2 °F /  11.8 °C 49.5 °F /  9.7 °C 29.9in /  1011.7hPa Calm     87% 0in /  0.0mm WeatherDisplay:10.37 W/m2 CLR
02:17 53.2 °F /  11.8 °C 49.5 °F /  9.7 °C 29.9in /  1011.7hPa Calm     87% 0in /  0.0mm WeatherDisplay:10.37 W/m2 CLR
02:22 53.4 °F /  11.9 °C 50 °F /  10.0 °C 29.9in /  1011.7hPa Calm     88% 0in /  0.0mm WeatherDisplay:10.37 W/m2 CLR
02:27 53.8 °F /  12.1 °C 49.8 °F /  9.9 °C 29.9in /  1011.7hPa Calm     87% 0in /  0.0mm WeatherDisplay:10.37 W/m2 CLR
02:32 53.8 °F /  12.1 °C 50 °F /  10.0 °C 29.9in /  1011.7hPa Calm     87% 0in /  0.0mm WeatherDisplay:10.37 W/m2 CLR
02:37 54 °F /  12.2 °C 50.2 °F /  10.1 °C 29.9in /  1011.7hPa North 1.2mph /  1.9km/h   87% 0in /  0.0mm WeatherDisplay:10.37 W/m2 CLR
02:42 54.1 °F /  12.3 °C 50.4 °F /  10.2 °C 29.9in /  1011.7hPa Calm     87% 0in /  0.0mm WeatherDisplay:10.37 W/m2 CLR
02:47 54.3 °F /  12.4 °C 50.5 °F /  10.3 °C 29.9in /  1011.7hPa Calm     87% 0in /  0.0mm WeatherDisplay:10.37 W/m2 CLR
02:52 54.3 °F /  12.4 °C 50.5 °F /  10.3 °C 29.9in /  1011.7hPa Calm     87% 0in /  0.0mm WeatherDisplay:10.37 W/m2 CLR
02:57 54.3 °F /  12.4 °C 50.5 °F /  10.3 °C 29.9in /  1011.7hPa Calm     87% 0in /  0.0mm WeatherDisplay:10.37 W/m2 CLR
03:02 54.5 °F /  12.5 °C 50.7 °F /  10.4 °C 29.9in /  1011.7hPa Calm     87% 0in /  0.0mm WeatherDisplay:10.37 W/m2 CLR
03:07 54.3 °F /  12.4 °C 50.5 °F /  10.3 °C 29.9in /  1011.7hPa Calm     87% 0in /  0.0mm WeatherDisplay:10.37 W/m2 CLR
03:12 54.3 °F /  12.4 °C 50.5 °F /  10.3 °C 29.9in /  1011.7hPa Calm     87% 0in /  0.0mm WeatherDisplay:10.37 W/m2 CLR
03:13 54.3 °F /  12.4 °C 50.5 °F /  10.3 °C 29.9in /  1011.7hPa Calm     87% 0in /  0.0mm WeatherDisplay:10.37 W/m2 CLR
03:18 54.3 °F /  12.4 °C 50.5 °F /  10.3 °C 29.9in /  1011.7hPa Calm     87% 0in /  0.0mm WeatherDisplay:10.37 W/m2 CLR
03:23 54.1 °F /  12.3 °C 50.7 °F /  10.4 °C 29.9in /  1011.7hPa Calm     88% 0in /  0.0mm WeatherDisplay:10.37 W/m2 CLR
03:28 54.1 °F /  12.3 °C 50.5 °F /  10.3 °C 29.9in /  1011.7hPa Calm     88% 0in /  0.0mm WeatherDisplay:10.37 W/m2 CLR
03:33 54.1 °F /  12.3 °C 50.5 °F /  10.3 °C 29.9in /  1011.7hPa Calm     88% 0in /  0.0mm WeatherDisplay:10.37 W/m2 CLR
03:38 54 °F /  12.2 °C 50.5 °F /  10.3 °C 29.9in /  1011.7hPa Calm     88% 0in /  0.0mm WeatherDisplay:10.37 W/m2 CLR
03:43 53.8 °F /  12.1 °C 50.4 °F /  10.2 °C 29.9in /  1012.1hPa Calm     88% 0in /  0.0mm WeatherDisplay:10.37 W/m2 CLR
03:48 53.8 °F /  12.1 °C 50.5 °F /  10.3 °C 29.9in /  1012.1hPa Calm     89% 0in /  0.0mm WeatherDisplay:10.37 W/m2 CLR
03:53 53.8 °F /  12.1 °C 50.5 °F /  10.3 °C 29.9in /  1012.1hPa Calm     89% 0in /  0.0mm WeatherDisplay:10.37 W/m2 CLR
03:58 53.8 °F /  12.1 °C 50.5 °F /  10.3 °C 29.9in /  1012.1hPa Calm     89% 0in /  0.0mm WeatherDisplay:10.37 W/m2 CLR
04:03 53.8 °F /  12.1 °C 50.5 °F /  10.3 °C 29.9in /  1012.1hPa Calm     89% 0in /  0.0mm WeatherDisplay:10.37 W/m2 CLR
04:08 53.8 °F /  12.1 °C 50.5 °F /  10.3 °C 29.9in /  1012.1hPa Calm     89% 0in /  0.0mm WeatherDisplay:10.37 W/m2 CLR
04:13 53.6 °F /  12.0 °C 50.4 °F /  10.2 °C 29.9in /  1012.1hPa Calm     89% 0in /  0.0mm WeatherDisplay:10.37 W/m2 CLR
04:18 53.4 °F /  11.9 °C 50.4 °F /  10.2 °C 29.9in /  1012.1hPa Calm     89% 0in /  0.0mm WeatherDisplay:10.37 W/m2 CLR
04:23 53.4 °F /  11.9 °C 50.2 °F /  10.1 °C 29.9in /  1012.1hPa Calm     89% 0in /  0.0mm WeatherDisplay:10.37 W/m2 CLR
04:28 53.2 °F /  11.8 °C 50.2 °F /  10.1 °C 29.9in /  1012.1hPa Calm     89% 0in /  0.0mm WeatherDisplay:10.37 W/m2 CLR
04:33 53.2 °F /  11.8 °C 50 °F /  10.0 °C 29.9in /  1012.1hPa Calm     89% 0in /  0.0mm WeatherDisplay:10.37 W/m2 CLR
04:38 53.1 °F /  11.7 °C 49.8 °F /  9.9 °C 29.9in /  1012.1hPa Calm     89% 0in /  0.0mm WeatherDisplay:10.37 W/m2 CLR
04:43 53.1 °F /  11.7 °C 49.8 °F /  9.9 °C 29.9in /  1012.1hPa Calm     89% 0in /  0.0mm WeatherDisplay:10.37 W/m2 CLR
04:48 52.9 °F /  11.6 °C 49.6 °F /  9.8 °C 29.9in /  1012.1hPa Calm     89% 0in /  0.0mm WeatherDisplay:10.37 W/m2 CLR
04:53 52.9 °F /  11.6 °C 49.6 °F /  9.8 °C 29.9in /  1012.1hPa Calm     89% 0in /  0.0mm WeatherDisplay:10.37 W/m2 CLR
04:58 52.7 °F /  11.5 °C 49.5 °F /  9.7 °C 29.9in /  1012.1hPa Calm     89% 0in /  0.0mm WeatherDisplay:10.37 W/m2 CLR
05:03 52.5 °F /  11.4 °C 49.5 °F /  9.7 °C 29.9in /  1012.1hPa Calm     89% 0in /  0.0mm WeatherDisplay:10.37 W/m2 CLR
05:08 52.5 °F /  11.4 °C 49.5 °F /  9.7 °C 29.9in /  1012.1hPa Calm     89% 0in /  0.0mm WeatherDisplay:10.37 W/m2 CLR
05:14 52.5 °F /  11.4 °C 49.5 °F /  9.7 °C 29.9in /  1012.1hPa Calm     89% 0in /  0.0mm WeatherDisplay:10.37 W/m2 CLR
05:19 52.3 °F /  11.3 °C 48.9 °F /  9.4 °C 29.9in /  1012.1hPa Calm     88% 0in /  0.0mm WeatherDisplay:10.37 W/m2 CLR
05:24 52.3 °F /  11.3 °C 48.9 °F /  9.4 °C 29.9in /  1012.1hPa Calm     88% 0in /  0.0mm WeatherDisplay:10.37 W/m2 CLR
05:29 52.3 °F /  11.3 °C 48.9 °F /  9.4 °C 29.9in /  1012.1hPa Calm     88% 0in /  0.0mm WeatherDisplay:10.37 W/m2 CLR
05:34 52.3 °F /  11.3 °C 48.9 °F /  9.4 °C 29.9in /  1012.1hPa Calm     88% 0in /  0.0mm WeatherDisplay:10.37 W/m2 CLR
05:39 52.3 °F /  11.3 °C 48.9 °F /  9.4 °C 29.9in /  1012.4hPa Calm     88% 0in /  0.0mm WeatherDisplay:10.37 W/m2 CLR
05:44 52.2 °F /  11.2 °C 48.7 °F /  9.3 °C 29.9in /  1012.4hPa Calm     88% 0in /  0.0mm WeatherDisplay:10.37 W/m2 CLR
05:49 52.3 °F /  11.3 °C 48.9 °F /  9.4 °C 29.9in /  1012.4hPa Calm     88% 0in /  0.0mm WeatherDisplay:10.37 W/m2 CLR
05:54 52.3 °F /  11.3 °C 48.9 °F /  9.4 °C 29.9in /  1012.4hPa Calm     88% 0in /  0.0mm WeatherDisplay:10.37 W/m2 CLR
05:59 52.3 °F /  11.3 °C 49.3 °F /  9.6 °C 29.9in /  1012.4hPa Calm     89% 0in /  0.0mm WeatherDisplay:10.37 W/m2 CLR
06:04 52.3 °F /  11.3 °C 49.3 °F /  9.6 °C 29.9in /  1012.4hPa Calm     89% 0in /  0.0mm WeatherDisplay:10.37 W/m2 CLR
06:09 52.3 °F /  11.3 °C 49.3 °F /  9.6 °C 29.9in /  1012.4hPa Calm     89% 0in /  0.0mm WeatherDisplay:10.37 W/m2 CLR
06:14 52.3 °F /  11.3 °C 49.3 °F /  9.6 °C 29.9in /  1012.4hPa Calm     89% 0in /  0.0mm WeatherDisplay:10.37 W/m2 CLR
06:19 52.3 °F /  11.3 °C 49.3 °F /  9.6 °C 29.9in /  1012.4hPa Calm     89% 0in /  0.0mm WeatherDisplay:10.37 W/m2 CLR
06:24 52.3 °F /  11.3 °C 49.3 °F /  9.6 °C 29.9in /  1012.8hPa Calm     89% 0in /  0.0mm WeatherDisplay:10.37 W/m2 CLR
06:29 52.3 °F /  11.3 °C 49.3 °F /  9.6 °C 29.9in /  1012.8hPa Calm     89% 0in /  0.0mm WeatherDisplay:10.37 W/m2 CLR
06:34 52.3 °F /  11.3 °C 49.3 °F /  9.6 °C 29.9in /  1012.8hPa Calm     89% 0in /  0.0mm WeatherDisplay:10.37 W/m2 CLR
06:39 52.3 °F /  11.3 °C 49.3 °F /  9.6 °C 29.9in /  1012.8hPa Calm     89% 0in /  0.0mm WeatherDisplay:10.37 W/m2 CLR
06:44 52.2 °F /  11.2 °C 49.1 °F /  9.5 °C 29.9in /  1012.8hPa Calm     89% 0in /  0.0mm WeatherDisplay:10.37 W/m2 CLR
06:49 52.2 °F /  11.2 °C 49.1 °F /  9.5 °C 29.9in /  1012.8hPa Calm     89% 0in /  0.0mm WeatherDisplay:10.37 W/m2 CLR
06:54 52.2 °F /  11.2 °C 49.1 °F /  9.5 °C 29.9in /  1013.1hPa Calm     89% 0in /  0.0mm WeatherDisplay:10.37 W/m2 CLR
06:59 52.2 °F /  11.2 °C 49.1 °F /  9.5 °C 29.9in /  1013.1hPa Calm     89% 0in /  0.0mm WeatherDisplay:10.37 W/m2 CLR
07:04 52.2 °F /  11.2 °C 49.5 °F /  9.7 °C 29.9in /  1013.1hPa Calm     90% 0in /  0.0mm WeatherDisplay:10.37 W/m2 CLR
07:09 52.2 °F /  11.2 °C 49.5 °F /  9.7 °C 29.9in /  1013.1hPa Calm     90% 0in /  0.0mm WeatherDisplay:10.37 W/m2 CLR
07:14 52.2 °F /  11.2 °C 49.5 °F /  9.7 °C 29.9in /  1013.1hPa Calm     90% 0in /  0.0mm WeatherDisplay:10.37 W/m2 CLR
07:19 52.3 °F /  11.3 °C 49.5 °F /  9.7 °C 29.9in /  1013.1hPa Calm     90% 0in /  0.0mm WeatherDisplay:10.37 W/m2 CLR
07:24 52.3 °F /  11.3 °C 49.6 °F /  9.8 °C 29.9in /  1013.1hPa Calm     90% 0in /  0.0mm WeatherDisplay:10.37 W/m2 CLR
07:29 52.3 °F /  11.3 °C 49.6 °F /  9.8 °C 29.9in /  1013.1hPa Calm     90% 0in /  0.0mm WeatherDisplay:10.37 W/m2 CLR
07:34 52.5 °F /  11.4 °C 49.6 °F /  9.8 °C 29.9in /  1013.1hPa Calm     90% 0in /  0.0mm WeatherDisplay:10.37 W/m2 CLR
07:39 52.5 °F /  11.4 °C 49.5 °F /  9.7 °C 29.9in /  1013.1hPa Calm     89% 0in /  0.0mm WeatherDisplay:10.37 W/m2 CLR
07:40 52.5 °F /  11.4 °C 49.5 °F /  9.7 °C 29.9in /  1013.1hPa Calm     89% 0in /  0.0mm WeatherDisplay:10.37 W/m2 CLR
07:45 52.5 °F /  11.4 °C 49.5 °F /  9.7 °C 29.9in /  1013.1hPa Calm     89% 0in /  0.0mm WeatherDisplay:10.37 W/m2 CLR
07:50 52.7 °F /  11.5 °C 49.5 °F /  9.7 °C 29.9in /  1013.1hPa Calm     89% 0in /  0.0mm WeatherDisplay:10.37 W/m2 CLR
07:55 52.9 °F /  11.6 °C 49.3 °F /  9.6 °C 29.9in /  1013.1hPa Calm     88% 0in /  0.0mm WeatherDisplay:10.37 W/m2 CLR
08:00 52.9 °F /  11.6 °C 49.3 °F /  9.6 °C 29.9in /  1013.4hPa Calm     88% 0in /  0.0mm WeatherDisplay:10.37 W/m2 CLR
08:05 53.1 °F /  11.7 °C 49.5 °F /  9.7 °C 29.9in /  1013.4hPa Calm     88% 0in /  0.0mm WeatherDisplay:10.37 W/m2 CLR
08:10 53.1 °F /  11.7 °C 49.3 °F /  9.6 °C 29.9in /  1013.4hPa Calm     87% 0in /  0.0mm WeatherDisplay:10.37 W/m2 CLR
08:15 53.2 °F /  11.8 °C 49.5 °F /  9.7 °C 29.9in /  1013.4hPa Calm     87% 0in /  0.0mm WeatherDisplay:10.37 W/m2 CLR
08:20 53.4 °F /  11.9 °C 49.6 °F /  9.8 °C 29.9in /  1013.4hPa Calm     87% 0in /  0.0mm WeatherDisplay:10.37 W/m2 CLR
08:25 53.8 °F /  12.1 °C 49.6 °F /  9.8 °C 29.9in /  1013.4hPa North 1.2mph /  1.9km/h   86% 0in /  0.0mm WeatherDisplay:10.37 W/m2 CLR
08:30 54 °F /  12.2 °C 49.8 °F /  9.9 °C 29.9in /  1013.4hPa Calm     86% 0in /  0.0mm WeatherDisplay:10.37 W/m2 CLR
08:35 54.3 °F /  12.4 °C 49.8 °F /  9.9 °C 29.9in /  1013.4hPa Calm   0.2mph /  0.3km/h 85% 0in /  0.0mm WeatherDisplay:10.37 W/m2 CLR
08:36 54.3 °F /  12.4 °C 50 °F /  10.0 °C 29.9in /  1013.4hPa North 1.2mph /  1.9km/h   85% 0in /  0.0mm WeatherDisplay:10.37 W/m2 CLR
08:41 54.9 °F /  12.7 °C 50.2 °F /  10.1 °C 29.9in /  1013.4hPa Calm     84% 0in /  0.0mm WeatherDisplay:10.37 W/m2 CLR
08:46 55 °F /  12.8 °C 50 °F /  10.0 °C 29.9in /  1013.4hPa Calm   0.1mph /  0.2km/h 83% 0in /  0.0mm WeatherDisplay:10.37 W/m2 CLR
08:51 55.2 °F /  12.9 °C 49.8 °F /  9.9 °C 29.9in /  1013.4hPa Calm     82% 0in /  0.0mm WeatherDisplay:10.37 W/m2 CLR
08:56 55.6 °F /  13.1 °C 49.5 °F /  9.7 °C 29.9in /  1013.4hPa Calm     80% 0in /  0.0mm WeatherDisplay:10.37 W/m2 CLR
09:01 55.9 °F /  13.3 °C 48.7 °F /  9.3 °C 29.9in /  1013.4hPa Calm     77% 0in /  0.0mm WeatherDisplay:10.37 W/m2 CLR
09:06 56.3 °F /  13.5 °C 49.3 °F /  9.6 °C 29.9in /  1013.4hPa Calm   0.1mph /  0.2km/h 77% 0in /  0.0mm WeatherDisplay:10.37 W/m2 CLR
09:11 56.7 °F /  13.7 °C 49.1 °F /  9.5 °C 29.9in /  1013.4hPa Calm     76% 0in /  0.0mm WeatherDisplay:10.37 W/m2 CLR
09:16 57.2 °F /  14.0 °C 48.9 °F /  9.4 °C 29.9in /  1013.4hPa West 2.3mph /  3.7km/h 2.3mph /  3.7km/h 74% 0in /  0.0mm WeatherDisplay:10.37 W/m2 CLR
09:21 57.9 °F /  14.4 °C 49.5 °F /  9.7 °C 29.9in /  1013.4hPa West 1.2mph /  1.9km/h 1.2mph /  1.9km/h 73% 0in /  0.0mm WeatherDisplay:10.37 W/m2 CLR
09:27 58.6 °F /  14.8 °C 49.3 °F /  9.6 °C 29.9in /  1013.4hPa WNW 2.3mph /  3.7km/h 2.3mph /  3.7km/h 71% 0in /  0.0mm WeatherDisplay:10.37 W/m2 CLR
09:32 59.2 °F /  15.1 °C 49.8 °F /  9.9 °C 29.9in /  1013.4hPa NNW 3.5mph /  5.6km/h 3.5mph /  5.6km/h 71% 0in /  0.0mm WeatherDisplay:10.37 W/m2 CLR
09:37 59.9 °F /  15.5 °C 48 °F /  8.9 °C 29.9in /  1013.4hPa South 1.2mph /  1.9km/h 1.2mph /  1.9km/h 65% 0in /  0.0mm WeatherDisplay:10.37 W/m2 CLR
09:42 60.4 °F /  15.8 °C 47.8 °F /  8.8 °C 29.9in /  1013.8hPa North 1mph /  1.6km/h 1mph /  1.6km/h 63% 0in /  0.0mm WeatherDisplay:10.37 W/m2 CLR
09:47 61.2 °F /  16.2 °C 47.5 °F /  8.6 °C 29.9in /  1013.4hPa ESE 3.5mph /  5.6km/h 3.5mph /  5.6km/h 61% 0in /  0.0mm WeatherDisplay:10.37 W/m2 CLR
09:52 61.5 °F /  16.4 °C 48 °F /  8.9 °C 29.9in /  1013.8hPa SSE 2.3mph /  3.7km/h 2.3mph /  3.7km/h 61% 0in /  0.0mm WeatherDisplay:10.37 W/m2 CLR
09:57 62.1 °F /  16.7 °C 48.4 °F /  9.1 °C 29.9in /  1013.4hPa NNW 2.3mph /  3.7km/h 2.3mph /  3.7km/h 61% 0in /  0.0mm WeatherDisplay:10.37 W/m2 CLR
10:02 62.2 °F /  16.8 °C 48.2 °F /  9.0 °C 29.9in /  1013.4hPa ESE 1.2mph /  1.9km/h 1.2mph /  1.9km/h 60% 0in /  0.0mm WeatherDisplay:10.37 W/m2 CLR
10:07 62.6 °F /  17.0 °C 48 °F /  8.9 °C 29.9in /  1013.4hPa West 2.3mph /  3.7km/h 2.3mph /  3.7km/h 59% 0in /  0.0mm WeatherDisplay:10.37 W/m2 CLR
10:12 63 °F /  17.2 °C 47.8 °F /  8.8 °C 29.9in /  1013.8hPa West 3.5mph /  5.6km/h 3.5mph /  5.6km/h 58% 0in /  0.0mm WeatherDisplay:10.37 W/m2 CLR
10:17 63.1 °F /  17.3 °C 47.1 °F /  8.4 °C 29.9in /  1013.8hPa SE 2.3mph /  3.7km/h   56% 0in /  0.0mm WeatherDisplay:10.37 W/m2 CLR
10:22 63.3 °F /  17.4 °C 46.9 °F /  8.3 °C 29.9in /  1013.8hPa NE 3.5mph /  5.6km/h 3.5mph /  5.6km/h 55% 0in /  0.0mm WeatherDisplay:10.37 W/m2 CLR
10:27 63.7 °F /  17.6 °C 48 °F /  8.9 °C 29.9in /  1013.8hPa NNE 4mph /  6.4km/h 4mph /  6.4km/h 57% 0in /  0.0mm WeatherDisplay:10.37 W/m2 CLR
10:32 63.9 °F /  17.7 °C 46.8 °F /  8.2 °C 29.9in /  1013.8hPa East 4.6mph /  7.4km/h 4.6mph /  7.4km/h 54% 0in /  0.0mm WeatherDisplay:10.37 W/m2 CLR
10:37 63.9 °F /  17.7 °C 47.8 °F /  8.8 °C 29.9in /  1013.8hPa WNW 2.3mph /  3.7km/h 2.3mph /  3.7km/h 56% 0in /  0.0mm WeatherDisplay:10.37 W/m2 CLR
10:42 64 °F /  17.8 °C 48 °F /  8.9 °C 29.9in /  1013.4hPa West 9mph /  14.5km/h 9mph /  14.5km/h 56% 0in /  0.0mm WeatherDisplay:10.37 W/m2 CLR
10:47 64.6 °F /  18.1 °C 46.9 °F /  8.3 °C 29.9in /  1013.8hPa NNW 3.5mph /  5.6km/h 3.5mph /  5.6km/h 53% 0in /  0.0mm WeatherDisplay:10.37 W/m2 CLR
10:53 64.8 °F /  18.2 °C 46.8 °F /  8.2 °C 29.9in /  1013.8hPa WSW 4.6mph /  7.4km/h 4.6mph /  7.4km/h 52% 0in /  0.0mm WeatherDisplay:10.37 W/m2 CLR
10:58 64.9 °F /  18.3 °C 47.8 °F /  8.8 °C 29.9in /  1013.8hPa North 2.3mph /  3.7km/h 2.3mph /  3.7km/h 54% 0in /  0.0mm WeatherDisplay:10.37 W/m2 CLR
11:03 65.1 °F /  18.4 °C 47.5 °F /  8.6 °C 29.9in /  1013.8hPa SSW 4.6mph /  7.4km/h 4.6mph /  7.4km/h 53% 0in /  0.0mm WeatherDisplay:10.37 W/m2 CLR
11:08 65.3 °F /  18.5 °C 46.8 °F /  8.2 °C 29.9in /  1013.8hPa NW 3.5mph /  5.6km/h 3.5mph /  5.6km/h 51% 0in /  0.0mm WeatherDisplay:10.37 W/m2 CLR
11:13 65.5 °F /  18.6 °C 46.4 °F /  8.0 °C 29.9in /  1013.8hPa NNW 6.9mph /  11.1km/h 6.9mph /  11.1km/h 50% 0in /  0.0mm WeatherDisplay:10.37 W/m2 CLR
11:18 65.7 °F /  18.7 °C 46.6 °F /  8.1 °C 29.9in /  1013.8hPa West 11.5mph /  18.5km/h 11.5mph /  18.5km/h 50% 0in /  0.0mm WeatherDisplay:10.37 W/m2 CLR
11:23 65.8 °F /  18.8 °C 46.6 °F /  8.1 °C 29.9in /  1013.8hPa NW 3.5mph /  5.6km/h 3.5mph /  5.6km/h 50% 0in /  0.0mm WeatherDisplay:10.37 W/m2 CLR
11:28 66 °F /  18.9 °C 46.2 °F /  7.9 °C 29.9in /  1013.8hPa West 4mph /  6.4km/h 4mph /  6.4km/h 49% 0in /  0.0mm WeatherDisplay:10.37 W/m2 CLR
11:33 66.4 °F /  19.1 °C 46.6 °F /  8.1 °C 29.9in /  1013.8hPa NNW 5.8mph /  9.3km/h 5.8mph /  9.3km/h 49% 0in /  0.0mm WeatherDisplay:10.37 W/m2 CLR
11:38 66.6 °F /  19.2 °C 46.2 °F /  7.9 °C 29.9in /  1013.8hPa West 5.8mph /  9.3km/h 5.8mph /  9.3km/h 48% 0in /  0.0mm WeatherDisplay:10.37 W/m2 CLR
11:43 66.7 °F /  19.3 °C 45.9 °F /  7.7 °C 29.9in /  1013.4hPa SW 2.3mph /  3.7km/h 2.3mph /  3.7km/h 47% 0in /  0.0mm WeatherDisplay:10.37 W/m2 CLR
11:48 67.3 °F /  19.6 °C 46.8 °F /  8.2 °C 29.9in /  1013.4hPa NW 5mph /  8.0km/h 5mph /  8.0km/h 48% 0in /  0.0mm WeatherDisplay:10.37 W/m2 CLR
11:53 67.6 °F /  19.8 °C 46.6 °F /  8.1 °C 29.9in /  1013.4hPa WNW 2.3mph /  3.7km/h 2.3mph /  3.7km/h 47% 0in /  0.0mm WeatherDisplay:10.37 W/m2 CLR
11:58 67.8 °F /  19.9 °C 47.5 °F /  8.6 °C 29.9in /  1013.4hPa North 12mph /  19.3km/h 12mph /  19.3km/h 48% 0in /  0.0mm WeatherDisplay:10.37 W/m2 CLR
12:03 68.4 °F /  20.2 °C 46.8 °F /  8.2 °C 29.9in /  1013.4hPa West 10.4mph /  16.7km/h 10.4mph /  16.7km/h 46% 0in /  0.0mm WeatherDisplay:10.37 W/m2 CLR
12:08 68.7 °F /  20.4 °C 46.6 °F /  8.1 °C 29.9in /  1013.4hPa WNW 4mph /  6.4km/h 4mph /  6.4km/h 45% 0in /  0.0mm WeatherDisplay:10.37 W/m2 CLR
12:13 68.9 °F /  20.5 °C 46.8 °F /  8.2 °C 29.9in /  1013.4hPa NW 2.3mph /  3.7km/h 2.3mph /  3.7km/h 45% 0in /  0.0mm WeatherDisplay:10.37 W/m2 CLR
12:18 69.1 °F /  20.6 °C 46.9 °F /  8.3 °C 29.9in /  1013.4hPa WSW 3.5mph /  5.6km/h 3.5mph /  5.6km/h 45% 0in /  0.0mm WeatherDisplay:10.37 W/m2 CLR
12:24 69.4 °F /  20.8 °C 46.6 °F /  8.1 °C 29.9in /  1013.4hPa West 3.5mph /  5.6km/h 3.5mph /  5.6km/h 44% 0in /  0.0mm WeatherDisplay:10.37 W/m2 CLR
12:29 69.4 °F /  20.8 °C 46 °F /  7.8 °C 29.9in /  1013.4hPa NW 3.5mph /  5.6km/h 3.5mph /  5.6km/h 43% 0in /  0.0mm WeatherDisplay:10.37 W/m2 CLR
12:34 69.8 °F /  21.0 °C 46.2 °F /  7.9 °C 29.9in /  1013.4hPa SW 5.8mph /  9.3km/h 5.8mph /  9.3km/h 43% 0in /  0.0mm WeatherDisplay:10.37 W/m2 CLR
12:39 70 °F /  21.1 °C 46.4 °F /  8.0 °C 29.9in /  1013.4hPa NNE 3.5mph /  5.6km/h 3.5mph /  5.6km/h 43% 0in /  0.0mm WeatherDisplay:10.37 W/m2 CLR
12:44 70 °F /  21.1 °C 45.9 °F /  7.7 °C 29.9in /  1013.4hPa SSE 3.5mph /  5.6km/h 3.5mph /  5.6km/h 42% 0in /  0.0mm WeatherDisplay:10.37 W/m2 CLR
12:49 70 °F /  21.1 °C 45.9 °F /  7.7 °C 29.9in /  1013.4hPa West 3.5mph /  5.6km/h 3.5mph /  5.6km/h 42% 0in /  0.0mm WeatherDisplay:10.37 W/m2 CLR
12:54 70.2 °F /  21.2 °C 45.9 °F /  7.7 °C 29.9in /  1013.4hPa WNW 4.6mph /  7.4km/h 4.6mph /  7.4km/h 42% 0in /  0.0mm WeatherDisplay:10.37 W/m2 CLR
12:59 70.2 °F /  21.2 °C 45.9 °F /  7.7 °C 29.9in /  1013.4hPa North 3.5mph /  5.6km/h 3.5mph /  5.6km/h 42% 0in /  0.0mm WeatherDisplay:10.37 W/m2 CLR
13:04 71.1 °F /  21.7 °C 47.5 °F /  8.6 °C 29.9in /  1013.4hPa North 2.3mph /  3.7km/h 2.3mph /  3.7km/h 43% 0in /  0.0mm WeatherDisplay:10.37 W/m2 CLR
13:09 71.2 °F /  21.8 °C 45.7 °F /  7.6 °C 29.9in /  1013.4hPa NNE 9.2mph /  14.8km/h 9.2mph /  14.8km/h 40% 0in /  0.0mm WeatherDisplay:10.37 W/m2 CLR
13:14 71.8 °F /  22.1 °C 46.8 °F /  8.2 °C 29.9in /  1013.4hPa NNW 10.4mph /  16.7km/h 10.4mph /  16.7km/h 41% 0in /  0.0mm WeatherDisplay:10.37 W/m2 CLR
13:19 71.8 °F /  22.1 °C 46.2 °F /  7.9 °C 29.9in /  1013.1hPa SW 3.5mph /  5.6km/h 3.5mph /  5.6km/h 40% 0in /  0.0mm WeatherDisplay:10.37 W/m2 CLR
13:24 72 °F /  22.2 °C 46.9 °F /  8.3 °C 29.9in /  1013.4hPa West 2.3mph /  3.7km/h 2.3mph /  3.7km/h 41% 0in /  0.0mm WeatherDisplay:10.37 W/m2 CLR
13:29 72.3 °F /  22.4 °C 47.3 °F /  8.5 °C 29.9in /  1013.4hPa WSW 3.5mph /  5.6km/h 3.5mph /  5.6km/h 41% 0in /  0.0mm WeatherDisplay:10.37 W/m2 CLR
13:34 72.5 °F /  22.5 °C 46 °F /  7.8 °C 29.9in /  1013.4hPa WNW 1.2mph /  1.9km/h 1.2mph /  1.9km/h 39% 0in /  0.0mm WeatherDisplay:10.37 W/m2 CLR
13:39 72.7 °F /  22.6 °C 46.2 °F /  7.9 °C 29.9in /  1013.4hPa West 1.2mph /  1.9km/h 1.2mph /  1.9km/h 39% 0in /  0.0mm WeatherDisplay:10.37 W/m2 CLR
13:44 72.7 °F /  22.6 °C 46.2 °F /  7.9 °C 29.9in /  1013.4hPa West 2.3mph /  3.7km/h 2.3mph /  3.7km/h 39% 0in /  0.0mm WeatherDisplay:10.37 W/m2 CLR
13:49 72.9 °F /  22.7 °C 46.4 °F /  8.0 °C 29.9in /  1013.4hPa NNW 5.8mph /  9.3km/h 5.8mph /  9.3km/h 39% 0in /  0.0mm WeatherDisplay:10.37 W/m2 CLR
13:54 72.9 °F /  22.7 °C 45.7 °F /  7.6 °C 29.9in /  1013.4hPa NW 2.3mph /  3.7km/h 2.3mph /  3.7km/h 38% 0in /  0.0mm WeatherDisplay:10.37 W/m2 CLR
13:59 73 °F /  22.8 °C 46 °F /  7.8 °C 29.9in /  1013.1hPa South 10.4mph /  16.7km/h 10.4mph /  16.7km/h 38% 0in /  0.0mm WeatherDisplay:10.37 W/m2 CLR
14:04 73 °F /  22.8 °C 45.9 °F /  7.7 °C 29.9in /  1013.1hPa NNW 2.3mph /  3.7km/h 2.3mph /  3.7km/h 38% 0in /  0.0mm WeatherDisplay:10.37 W/m2 CLR
14:09 72.5 °F /  22.5 °C 45.3 °F /  7.4 °C 29.9in /  1013.1hPa WNW 2.3mph /  3.7km/h 2.3mph /  3.7km/h 38% 0in /  0.0mm WeatherDisplay:10.37 W/m2 CLR
14:14 72.7 °F /  22.6 °C 45.5 °F /  7.5 °C 29.9in /  1013.1hPa WSW 5.8mph /  9.3km/h 5.8mph /  9.3km/h 38% 0in /  0.0mm WeatherDisplay:10.37 W/m2 CLR
14:19 72.9 °F /  22.7 °C 45.7 °F /  7.6 °C 29.9in /  1013.1hPa North 11.5mph /  18.5km/h 11.5mph /  18.5km/h 38% 0in /  0.0mm WeatherDisplay:10.37 W/m2 CLR
14:24 73 °F /  22.8 °C 45.9 °F /  7.7 °C 29.9in /  1013.1hPa North 1.2mph /  1.9km/h   38% 0in /  0.0mm WeatherDisplay:10.37 W/m2 CLR
14:29 73 °F /  22.8 °C 46 °F /  7.8 °C 29.9in /  1013.1hPa North 3.5mph /  5.6km/h 3.5mph /  5.6km/h 38% 0in /  0.0mm WeatherDisplay:10.37 W/m2 CLR
14:35 72.9 °F /  22.7 °C 45 °F /  7.2 °C 29.9in /  1013.1hPa NNW 10.4mph /  16.7km/h 10.4mph /  16.7km/h 37% 0in /  0.0mm WeatherDisplay:10.37 W/m2 CLR
14:40 72.9 °F /  22.7 °C 45.7 °F /  7.6 °C 29.9in /  1013.1hPa NNW 2.3mph /  3.7km/h 2.3mph /  3.7km/h 38% 0in /  0.0mm WeatherDisplay:10.37 W/m2 CLR
14:45 72.7 °F /  22.6 °C 45 °F /  7.2 °C 29.9in /  1013.1hPa WNW 1.2mph /  1.9km/h 1.2mph /  1.9km/h 37% 0in /  0.0mm WeatherDisplay:10.37 W/m2 CLR
14:50 72.9 °F /  22.7 °C 45.1 °F /  7.3 °C 29.9in /  1013.1hPa NW 6.9mph /  11.1km/h 6.9mph /  11.1km/h 37% 0in /  0.0mm WeatherDisplay:10.37 W/m2 CLR
14:55 73.2 °F /  22.9 °C 45.3 °F /  7.4 °C 29.9in /  1013.1hPa NE 2.3mph /  3.7km/h 2.3mph /  3.7km/h 37% 0in /  0.0mm WeatherDisplay:10.37 W/m2 CLR
15:00 73.6 °F /  23.1 °C 45.7 °F /  7.6 °C 29.9in /  1013.1hPa WSW 2.3mph /  3.7km/h 2.3mph /  3.7km/h 37% 0in /  0.0mm WeatherDisplay:10.37 W/m2 CLR
15:05 73.2 °F /  22.9 °C 44.8 °F /  7.1 °C 29.9in /  1013.1hPa SW 1.2mph /  1.9km/h 1.6mph /  2.6km/h 36% 0in /  0.0mm WeatherDisplay:10.37 W/m2 CLR
15:10 73.2 °F /  22.9 °C 44.8 °F /  7.1 °C 29.9in /  1013.1hPa SSE 2.3mph /  3.7km/h 2.3mph /  3.7km/h 36% 0in /  0.0mm WeatherDisplay:10.37 W/m2 CLR
15:15 73.2 °F /  22.9 °C 44.8 °F /  7.1 °C 29.9in /  1013.1hPa SSE 1.2mph /  1.9km/h 1.2mph /  1.9km/h 36% 0in /  0.0mm WeatherDisplay:10.37 W/m2 CLR
15:20 73.4 °F /  23.0 °C 44.8 °F /  7.1 °C 29.9in /  1013.1hPa WNW 3mph /  4.8km/h 3mph /  4.8km/h 36% 0in /  0.0mm WeatherDisplay:10.37 W/m2 CLR
15:25 73.2 °F /  22.9 °C 44.6 °F /  7.0 °C 29.9in /  1013.1hPa WSW 3.5mph /  5.6km/h 3.5mph /  5.6km/h 36% 0in /  0.0mm WeatherDisplay:10.37 W/m2 CLR
15:30 72.7 °F /  22.6 °C 44.2 °F /  6.8 °C 29.9in /  1012.8hPa WSW 2.3mph /  3.7km/h 2.3mph /  3.7km/h 36% 0in /  0.0mm WeatherDisplay:10.37 W/m2 CLR
15:35 72.7 °F /  22.6 °C 44.1 °F /  6.7 °C 29.9in /  1012.8hPa West 1.2mph /  1.9km/h 1.2mph /  1.9km/h 36% 0in /  0.0mm WeatherDisplay:10.37 W/m2 CLR
15:40 72.7 °F /  22.6 °C 45 °F /  7.2 °C 29.9in /  1012.8hPa NNE 3.5mph /  5.6km/h 3.5mph /  5.6km/h 37% 0in /  0.0mm WeatherDisplay:10.37 W/m2 CLR
15:45 72.9 °F /  22.7 °C 43.5 °F /  6.4 °C 29.9in /  1012.8hPa NW 5.8mph /  9.3km/h 5.8mph /  9.3km/h 35% 0in /  0.0mm WeatherDisplay:10.37 W/m2 CLR
15:50 72.7 °F /  22.6 °C 44.2 °F /  6.8 °C 29.9in /  1012.8hPa ESE 2.3mph /  3.7km/h 2.3mph /  3.7km/h 36% 0in /  0.0mm WeatherDisplay:10.37 W/m2 CLR
15:55 72.1 °F /  22.3 °C 43 °F /  6.1 °C 29.9in /  1012.8hPa SSW 2mph /  3.2km/h 2mph /  3.2km/h 35% 0in /  0.0mm WeatherDisplay:10.37 W/m2 CLR
16:00 72.1 °F /  22.3 °C 43.7 °F /  6.5 °C 29.9in /  1012.8hPa NNW 3.5mph /  5.6km/h 3.5mph /  5.6km/h 36% 0in /  0.0mm WeatherDisplay:10.37 W/m2 CLR
16:05 71.8 °F /  22.1 °C 42.6 °F /  5.9 °C 29.9in /  1012.8hPa WNW 6.9mph /  11.1km/h 6.9mph /  11.1km/h 35% 0in /  0.0mm WeatherDisplay:10.37 W/m2 CLR
16:10 71.8 °F /  22.1 °C 42.6 °F /  5.9 °C 29.9in /  1012.8hPa North 3.5mph /  5.6km/h 3.5mph /  5.6km/h 35% 0in /  0.0mm WeatherDisplay:10.37 W/m2 CLR
16:15 71.8 °F /  22.1 °C 41.9 °F /  5.5 °C 29.9in /  1012.8hPa ESE 2.3mph /  3.7km/h 2.3mph /  3.7km/h 34% 0in /  0.0mm WeatherDisplay:10.37 W/m2 CLR
16:20 71.6 °F /  22.0 °C 41.7 °F /  5.4 °C 29.9in /  1012.8hPa NE 4.6mph /  7.4km/h 4.6mph /  7.4km/h 34% 0in /  0.0mm WeatherDisplay:10.37 W/m2 CLR
16:25 71.6 °F /  22.0 °C 41.7 °F /  5.4 °C 29.9in /  1012.8hPa WSW 2.3mph /  3.7km/h 2.3mph /  3.7km/h 34% 0in /  0.0mm WeatherDisplay:10.37 W/m2 CLR
16:30 71.8 °F /  22.1 °C 42.6 °F /  5.9 °C 29.9in /  1012.8hPa ESE 2.3mph /  3.7km/h 2.3mph /  3.7km/h 35% 0in /  0.0mm WeatherDisplay:10.37 W/m2 CLR
16:35 71.8 °F /  22.1 °C 41.7 °F /  5.4 °C 29.9in /  1012.8hPa North 3.5mph /  5.6km/h 3.5mph /  5.6km/h 34% 0in /  0.0mm WeatherDisplay:10.37 W/m2 CLR
16:40 71.8 °F /  22.1 °C 42.6 °F /  5.9 °C 29.9in /  1012.8hPa WNW 2.3mph /  3.7km/h 2.3mph /  3.7km/h 35% 0in /  0.0mm WeatherDisplay:10.37 W/m2 CLR
16:45 71.6 °F /  22.0 °C 42.4 °F /  5.8 °C 29.9in /  1012.8hPa WSW 1.2mph /  1.9km/h   35% 0in /  0.0mm WeatherDisplay:10.37 W/m2 CLR
16:50 71.4 °F /  21.9 °C 41.5 °F /  5.3 °C 29.9in /  1012.8hPa WNW 6mph /  9.7km/h 6mph /  9.7km/h 34% 0in /  0.0mm WeatherDisplay:10.37 W/m2 CLR
16:55 71.4 °F /  21.9 °C 41.5 °F /  5.3 °C 29.9in /  1013.1hPa SSE 3.5mph /  5.6km/h 3.5mph /  5.6km/h 34% 0in /  0.0mm WeatherDisplay:10.37 W/m2 CLR
17:00 71.4 °F /  21.9 °C 42.4 °F /  5.8 °C 29.9in /  1013.1hPa North 1.2mph /  1.9km/h 1.2mph /  1.9km/h 35% 0in /  0.0mm WeatherDisplay:10.37 W/m2 CLR
17:05 71.4 °F /  21.9 °C 42.3 °F /  5.7 °C 29.9in /  1012.8hPa NW 2.3mph /  3.7km/h 2.3mph /  3.7km/h 35% 0in /  0.0mm WeatherDisplay:10.37 W/m2 CLR
17:09 71.2 °F /  21.8 °C 42.3 °F /  5.7 °C 29.9in /  1013.1hPa WSW 3.5mph /  5.6km/h 3.5mph /  5.6km/h 35% 0in /  0.0mm WeatherDisplay:10.37 W/m2 CLR
17:14 71.2 °F /  21.8 °C 42.1 °F /  5.6 °C 29.9in /  1013.1hPa North 3.5mph /  5.6km/h 3.5mph /  5.6km/h 35% 0in /  0.0mm WeatherDisplay:10.37 W/m2 CLR
17:19 71.2 °F /  21.8 °C 42.1 °F /  5.6 °C 29.9in /  1012.8hPa North 4.6mph /  7.4km/h 4.6mph /  7.4km/h 35% 0in /  0.0mm WeatherDisplay:10.37 W/m2 CLR
17:24 71.1 °F /  21.7 °C 42.8 °F /  6.0 °C 29.9in /  1012.8hPa North 1.2mph /  1.9km/h   36% 0in /  0.0mm WeatherDisplay:10.37 W/m2 CLR
17:29 71.1 °F /  21.7 °C 42.6 °F /  5.9 °C 29.9in /  1012.8hPa North 2mph /  3.2km/h 2mph /  3.2km/h 36% 0in /  0.0mm WeatherDisplay:10.37 W/m2 CLR
17:34 70.9 °F /  21.6 °C 41.9 °F /  5.5 °C 29.9in /  1012.8hPa WSW 4mph /  6.4km/h 4mph /  6.4km/h 35% 0in /  0.0mm WeatherDisplay:10.37 W/m2 CLR
17:39 70.9 °F /  21.6 °C 41.7 °F /  5.4 °C 29.9in /  1012.8hPa NNW 9.2mph /  14.8km/h 9.2mph /  14.8km/h 35% 0in /  0.0mm WeatherDisplay:10.37 W/m2 CLR
17:44 70.7 °F /  21.5 °C 42.4 °F /  5.8 °C 29.9in /  1013.1hPa NNE 4.6mph /  7.4km/h 4.6mph /  7.4km/h 36% 0in /  0.0mm WeatherDisplay:10.37 W/m2 CLR
17:49 70.5 °F /  21.4 °C 42.3 °F /  5.7 °C 29.9in /  1013.1hPa SSE 3.5mph /  5.6km/h 3.5mph /  5.6km/h 36% 0in /  0.0mm WeatherDisplay:10.37 W/m2 CLR
17:54 70.5 °F /  21.4 °C 41.5 °F /  5.3 °C 29.9in /  1013.1hPa NNW 3.5mph /  5.6km/h 3.5mph /  5.6km/h 35% 0in /  0.0mm WeatherDisplay:10.37 W/m2 CLR
17:59 70.5 °F /  21.4 °C 41.5 °F /  5.3 °C 29.9in /  1013.1hPa North 6mph /  9.7km/h 6mph /  9.7km/h 35% 0in /  0.0mm WeatherDisplay:10.37 W/m2 CLR
18:04 70.3 °F /  21.3 °C 42.3 °F /  5.7 °C 29.9in /  1013.1hPa NE 2.3mph /  3.7km/h   36% 0in /  0.0mm WeatherDisplay:10.37 W/m2 CLR
18:09 70.2 °F /  21.2 °C 42.1 °F /  5.6 °C 29.9in /  1013.1hPa North 3.5mph /  5.6km/h 3.5mph /  5.6km/h 36% 0in /  0.0mm WeatherDisplay:10.37 W/m2 CLR
18:14 70 °F /  21.1 °C 41.7 °F /  5.4 °C 29.9in /  1013.1hPa North 1.2mph /  1.9km/h 1.2mph /  1.9km/h 36% 0in /  0.0mm WeatherDisplay:10.37 W/m2 CLR
18:19 69.6 °F /  20.9 °C 41.5 °F /  5.3 °C 29.9in /  1013.1hPa WNW 2.3mph /  3.7km/h 2.3mph /  3.7km/h 36% 0in /  0.0mm WeatherDisplay:10.37 W/m2 CLR
18:24 69.6 °F /  20.9 °C 42.3 °F /  5.7 °C 29.9in /  1013.1hPa North 3.5mph /  5.6km/h 3.5mph /  5.6km/h 37% 0in /  0.0mm WeatherDisplay:10.37 W/m2 CLR
18:29 69.4 °F /  20.8 °C 42.6 °F /  5.9 °C 29.9in /  1013.1hPa North 1.2mph /  1.9km/h 1.2mph /  1.9km/h 38% 0in /  0.0mm WeatherDisplay:10.37 W/m2 CLR
18:34 69.1 °F /  20.6 °C 41.7 °F /  5.4 °C 29.9in /  1013.1hPa North 2.3mph /  3.7km/h 2.3mph /  3.7km/h 37% 0in /  0.0mm WeatherDisplay:10.37 W/m2 CLR
18:40 68.7 °F /  20.4 °C 43.5 °F /  6.4 °C 29.9in /  1013.1hPa NE 2.3mph /  3.7km/h 2.3mph /  3.7km/h 40% 0in /  0.0mm WeatherDisplay:10.37 W/m2 CLR
18:45 68.5 °F /  20.3 °C 42.6 °F /  5.9 °C 29.9in /  1013.1hPa WNW 3.5mph /  5.6km/h 3.5mph /  5.6km/h 39% 0in /  0.0mm WeatherDisplay:10.37 W/m2 CLR
18:50 68.2 °F /  20.1 °C 43 °F /  6.1 °C 29.9in /  1013.4hPa WNW 1.2mph /  1.9km/h 1.2mph /  1.9km/h 40% 0in /  0.0mm WeatherDisplay:10.37 W/m2 CLR
18:55 67.8 °F /  19.9 °C 43.3 °F /  6.3 °C 29.9in /  1013.4hPa Calm   0.1mph /  0.2km/h 41% 0in /  0.0mm WeatherDisplay:10.37 W/m2 CLR
19:00 67.6 °F /  19.8 °C 42.4 °F /  5.8 °C 29.9in /  1013.4hPa WNW 1.2mph /  1.9km/h   40% 0in /  0.0mm WeatherDisplay:10.37 W/m2 CLR
19:05 67.5 °F /  19.7 °C 43.5 °F /  6.4 °C 29.9in /  1013.4hPa Calm     42% 0in /  0.0mm WeatherDisplay:10.37 W/m2 CLR
19:10 66.9 °F /  19.4 °C 42.4 °F /  5.8 °C 29.9in /  1013.4hPa NW 2.3mph /  3.7km/h 2.3mph /  3.7km/h 41% 0in /  0.0mm WeatherDisplay:10.37 W/m2 CLR
19:15 66.7 °F /  19.3 °C 43 °F /  6.1 °C 29.9in /  1013.4hPa NW 1.2mph /  1.9km/h   42% 0in /  0.0mm WeatherDisplay:10.37 W/m2 CLR
19:20 66.2 °F /  19.0 °C 43 °F /  6.1 °C 29.9in /  1013.4hPa Calm   0.1mph /  0.2km/h 43% 0in /  0.0mm WeatherDisplay:10.37 W/m2 CLR
19:25 65.8 °F /  18.8 °C 42.6 °F /  5.9 °C 29.9in /  1013.4hPa Calm     43% 0in /  0.0mm WeatherDisplay:10.37 W/m2 CLR
19:30 65.5 °F /  18.6 °C 43 °F /  6.1 °C 29.9in /  1013.4hPa NNW 1mph /  1.6km/h   44% 0in /  0.0mm WeatherDisplay:10.37 W/m2 CLR
19:35 65.1 °F /  18.4 °C 42.6 °F /  5.9 °C 29.9in /  1013.4hPa Calm     44% 0in /  0.0mm WeatherDisplay:10.37 W/m2 CLR
19:40 64.8 °F /  18.2 °C 43 °F /  6.1 °C 29.9in /  1013.4hPa Calm     45% 0in /  0.0mm WeatherDisplay:10.37 W/m2 CLR
19:45 64.2 °F /  17.9 °C 42.4 °F /  5.8 °C 29.9in /  1013.8hPa Calm     45% 0in /  0.0mm WeatherDisplay:10.37 W/m2 CLR
19:50 64 °F /  17.8 °C 41.7 °F /  5.4 °C 29.9in /  1013.8hPa Calm     44% 0in /  0.0mm WeatherDisplay:10.37 W/m2 CLR
19:55 63.9 °F /  17.7 °C 41.5 °F /  5.3 °C 29.9in /  1013.8hPa Calm     44% 0in /  0.0mm WeatherDisplay:10.37 W/m2 CLR
20:00 63.7 °F /  17.6 °C 41.9 °F /  5.5 °C 29.9in /  1013.8hPa Calm     45% 0in /  0.0mm WeatherDisplay:10.37 W/m2 CLR
20:05 63.3 °F /  17.4 °C 41.7 °F /  5.4 °C 29.9in /  1013.8hPa Calm     45% 0in /  0.0mm WeatherDisplay:10.37 W/m2 CLR
20:10 63.1 °F /  17.3 °C 41.5 °F /  5.3 °C 29.9in /  1013.8hPa Calm     45% 0in /  0.0mm WeatherDisplay:10.37 W/m2 CLR
20:20 63 °F /  17.2 °C 41.4 °F /  5.2 °C 29.9in /  1013.8hPa Calm     45% 0in /  0.0mm WeatherDisplay:10.37 W/m2 CLR
20:21 63 °F /  17.2 °C 41.2 °F /  5.1 °C 29.9in /  1013.8hPa Calm     45% 0in /  0.0mm WeatherDisplay:10.37 W/m2 CLR
20:23 63 °F /  17.2 °C 41.2 °F /  5.1 °C 29.9in /  1013.8hPa NNW 1.2mph /  1.9km/h   45% 0in /  0.0mm WeatherDisplay:10.37 W/m2 CLR
20:26 63 °F /  17.2 °C 40.6 °F /  4.8 °C 29.9in /  1013.8hPa Calm     44% 0in /  0.0mm WeatherDisplay:10.37 W/m2 CLR
20:27 62.8 °F /  17.1 °C 40.5 °F /  4.7 °C 29.9in /  1013.8hPa Calm     44% 0in /  0.0mm WeatherDisplay:10.37 W/m2 CLR
20:29 62.8 °F /  17.1 °C 40.5 °F /  4.7 °C 29.9in /  1013.8hPa NNW 1.2mph /  1.9km/h   44% 0in /  0.0mm WeatherDisplay:10.37 W/m2 CLR
20:34 62.8 °F /  17.1 °C 39.9 °F /  4.4 °C 29.9in /  1013.8hPa North 2.3mph /  3.7km/h   43% 0in /  0.0mm WeatherDisplay:10.37 W/m2 CLR
20:39 63 °F /  17.2 °C 39.4 °F /  4.1 °C 29.9in /  1014.1hPa North 1.2mph /  1.9km/h 1.2mph /  1.9km/h 42% 0in /  0.0mm WeatherDisplay:10.37 W/m2 CLR
20:44 63 °F /  17.2 °C 40.1 °F /  4.5 °C 29.9in /  1014.1hPa Calm     43% 0in /  0.0mm WeatherDisplay:10.37 W/m2 CLR
20:49 63.1 °F /  17.3 °C 40.3 °F /  4.6 °C 29.9in /  1014.1hPa North 1.2mph /  1.9km/h   43% 0in /  0.0mm WeatherDisplay:10.37 W/m2 CLR
20:59 63 °F /  17.2 °C 39.4 °F /  4.1 °C 29.9in /  1014.1hPa Calm     42% 0in /  0.0mm WeatherDisplay:10.37 W/m2 CLR
21:04 62.8 °F /  17.1 °C 39.9 °F /  4.4 °C 29.9in /  1014.1hPa Calm     43% 0in /  0.0mm WeatherDisplay:10.37 W/m2 CLR
21:10 62.4 °F /  16.9 °C 39 °F /  3.9 °C 29.9in /  1014.1hPa Calm     42% 0in /  0.0mm WeatherDisplay:10.37 W/m2 CLR
21:15 62.2 °F /  16.8 °C 39.6 °F /  4.2 °C 29.9in /  1014.1hPa Calm     43% 0in /  0.0mm WeatherDisplay:10.37 W/m2 CLR
21:20 62.2 °F /  16.8 °C 39.4 °F /  4.1 °C 29.9in /  1014.1hPa Calm     43% 0in /  0.0mm WeatherDisplay:10.37 W/m2 CLR
21:25 62.1 °F /  16.7 °C 38.7 °F /  3.7 °C 29.9in /  1014.1hPa Calm     42% 0in /  0.0mm WeatherDisplay:10.37 W/m2 CLR
21:30 62.1 °F /  16.7 °C 39.2 °F /  4.0 °C 29.9in /  1014.1hPa Calm     43% 0in /  0.0mm WeatherDisplay:10.37 W/m2 CLR
21:35 61.7 °F /  16.5 °C 40.1 °F /  4.5 °C 30in /  1014.4hPa Calm     45% 0in /  0.0mm WeatherDisplay:10.37 W/m2 CLR
21:40 61.3 °F /  16.3 °C 39.9 °F /  4.4 °C 29.9in /  1014.1hPa Calm     45% 0in /  0.0mm WeatherDisplay:10.37 W/m2 CLR
21:45 61.2 °F /  16.2 °C 39.7 °F /  4.3 °C 30in /  1014.4hPa Calm     45% 0in /  0.0mm WeatherDisplay:10.37 W/m2 CLR
21:50 61 °F /  16.1 °C 39.4 °F /  4.1 °C 30in /  1014.4hPa Calm     45% 0in /  0.0mm WeatherDisplay:10.37 W/m2 CLR
21:55 61 °F /  16.1 °C 39.9 °F /  4.4 °C 30in /  1014.4hPa Calm     46% 0in /  0.0mm WeatherDisplay:10.37 W/m2 CLR
22:01 61 °F /  16.1 °C 39.4 °F /  4.1 °C 30in /  1014.4hPa Calm     45% 0in /  0.0mm WeatherDisplay:10.37 W/m2 CLR
22:06 60.8 °F /  16.0 °C 39.4 °F /  4.1 °C 30in /  1014.4hPa Calm     45% 0in /  0.0mm WeatherDisplay:10.37 W/m2 CLR
22:11 60.6 °F /  15.9 °C 39.2 °F /  4.0 °C 30in /  1014.4hPa Calm     45% 0in /  0.0mm WeatherDisplay:10.37 W/m2 CLR
22:16 60.6 °F /  15.9 °C 39 °F /  3.9 °C 30in /  1014.4hPa Calm     45% 0in /  0.0mm WeatherDisplay:10.37 W/m2 CLR
22:21 60.4 °F /  15.8 °C 39 °F /  3.9 °C 30in /  1014.4hPa Calm     45% 0in /  0.0mm WeatherDisplay:10.37 W/m2 CLR
22:26 60.4 °F /  15.8 °C 38.8 °F /  3.8 °C 30in /  1014.8hPa Calm     45% 0in /  0.0mm WeatherDisplay:10.37 W/m2 CLR
22:31 60.3 °F /  15.7 °C 39.4 °F /  4.1 °C 30in /  1014.8hPa Calm     46% 0in /  0.0mm WeatherDisplay:10.37 W/m2 CLR
22:36 60.1 °F /  15.6 °C 39.2 °F /  4.0 °C 30in /  1014.8hPa Calm     46% 0in /  0.0mm WeatherDisplay:10.37 W/m2 CLR
22:41 59.9 °F /  15.5 °C 39 °F /  3.9 °C 30in /  1014.8hPa Calm     46% 0in /  0.0mm WeatherDisplay:10.37 W/m2 CLR
22:46 59.9 °F /  15.5 °C 39.6 °F /  4.2 °C 30in /  1014.8hPa Calm     47% 0in /  0.0mm WeatherDisplay:10.37 W/m2 CLR
22:51 59.7 °F /  15.4 °C 39.6 °F /  4.2 °C 30in /  1014.8hPa Calm     47% 0in /  0.0mm WeatherDisplay:10.37 W/m2 CLR
22:56 59.5 °F /  15.3 °C 40.5 °F /  4.7 °C 30in /  1014.8hPa Calm     49% 0in /  0.0mm WeatherDisplay:10.37 W/m2 CLR
23:01 59.4 °F /  15.2 °C 40.3 °F /  4.6 °C 30in /  1014.8hPa Calm     49% 0in /  0.0mm WeatherDisplay:10.37 W/m2 CLR
23:06 59.4 °F /  15.2 °C 40.1 °F /  4.5 °C 30in /  1014.8hPa Calm     49% 0in /  0.0mm WeatherDisplay:10.37 W/m2 CLR
23:11 59 °F /  15.0 °C 39.9 °F /  4.4 °C 30in /  1014.8hPa Calm     49% 0in /  0.0mm WeatherDisplay:10.37 W/m2 CLR
23:16 58.8 °F /  14.9 °C 40.3 °F /  4.6 °C 30in /  1015.1hPa Calm     50% 0in /  0.0mm WeatherDisplay:10.37 W/m2 CLR
23:21 58.6 °F /  14.8 °C 39.9 °F /  4.4 °C 30in /  1015.1hPa Calm     50% 0in /  0.0mm WeatherDisplay:10.37 W/m2 CLR
23:26 58.5 °F /  14.7 °C 39.7 °F /  4.3 °C 30in /  1015.1hPa Calm     50% 0in /  0.0mm WeatherDisplay:10.37 W/m2 CLR
23:31 58.3 °F /  14.6 °C 40.6 °F /  4.8 °C 30in /  1015.1hPa Calm     52% 0in /  0.0mm WeatherDisplay:10.37 W/m2 CLR
23:36 57.9 °F /  14.4 °C 39.9 °F /  4.4 °C 30in /  1015.1hPa Calm     51% 0in /  0.0mm WeatherDisplay:10.37 W/m2 CLR
23:41 57.9 °F /  14.4 °C 39.9 °F /  4.4 °C 30in /  1015.1hPa Calm     51% 0in /  0.0mm WeatherDisplay:10.37 W/m2 CLR
23:46 57.7 °F /  14.3 °C 40.3 °F /  4.6 °C 30in /  1015.1hPa Calm     52% 0in /  0.0mm WeatherDisplay:10.37 W/m2 CLR
23:51 57.7 °F /  14.3 °C 40.3 °F /  4.6 °C 30in /  1015.1hPa Calm     52% 0in /  0.0mm WeatherDisplay:10.37 W/m2 CLR
23:56 57.7 °F /  14.3 °C 40.8 °F /  4.9 °C 30in /  1015.1hPa Calm     53% 0in /  0.0mm WeatherDisplay:10.37 W/m2 CLR
Indianola, WA, USA
Compliments of Weather Underground - 3 mb